Airfield :
LOGIN :

Register | Disclaimer

   EN    FR    IT 

 










Legend :    VFR   Marginal VFR   IFR   Intensive IFR   Very Intensive IFR
Visi :
Ceiling :
>= 8 km
>= 3000ft
5 to 8 km
1000 to 3000 ft
1500m to 5 km
500 to 1000 ft
800 to 1500m
200 to 500 ft
< 800m
< 200 ft
Symbols :   Thunderstorms  Fog  Heavy snow  Heavy precipitations  Wind > 20 kt
SIGMETs :     Misc.  Thunderstorms  Icing  Turbulence  Mountain Waves  Volcanic Ashes







- Airport Elevation : 364 ft
- IATA code : FRA


EDDF - Frankfurt Int.

CURRENT METAR :
  • 140420Z 23019KT 9999 FEW010 FEW017CB SCT035 04/02 Q0992 RESHRA NOSIG

EXPIRED METARs :
  • 140350Z 22015G29KT 190V260 4000 SHRA FEW005 SCT017CB BKN030 05/03 Q0992 BECMG 5000 NSW
  • 140320Z 17009KT 9999 -SHRA FEW015 SCT025CB BKN035 05/03 Q0992 TEMPO 20020G35KT SHRA
  • 140250Z 18009KT 9999 FEW015 SCT060 BKN100 05/03 Q0992 NOSIG
  • 140220Z 19007KT 9999 FEW015 SCT030 04/03 Q0993 NOSIG
  • 140150Z 20009KT 9999 FEW015 04/03 Q0993 NOSIG
  • 140120Z 19008KT 9999 FEW010 SCT035 04/03 Q0993 NOSIG

TAF AMD TAF EDDF
Valid from the 14 at 03:00 until the 15 at 06:00 UTC


140328Z 1403/1506 20015G25KT 9999 SCT015 BKN025
TEMPO 1403/1405 23020G35KT 4000 SHRA BKN014CB
PROB30
TEMPO 1403/1405 26025G45KT 2000 TSRA BKN008 BKN015CB
TEMPO 1411/1502 SHRA BKN015CB
PROB30
TEMPO 1412/1416 23020G35KT 3000 TSRAGS BKN012CB
BECMG 1417/1419 20010KT
No reported NOTAMs for that airfield.
1 SIGMET reported for the Langen FIR (EDGG) :
 
Severe turbulence
EDGG SIGMET 1 VALID 140200/140500 EDZF
EDGG LANGEN FIR SEV TURB FCST S OF N4930 SFC/5000FT MOV E NC=



MET'MAP, your aeronautical weather chart ! - Copyright ORBIFLY December 2007 - Disclaimer

ORBIFLY MET'MAP TEAM :

Programming & Development : Alexandra Zaïnal
Concept & Development : Baudouin d'Aumeries
Co-Development & Prog : Marc-Olivier Méhu
Technical & hardware support : Manuel Goepfert

Contact : metmap@orbifly.com




SOURCES & CREDITS :

   NOAA